sensor_id;sensor_type;location;lat;lon;timestamp;temperature;humidity
37232;DHT22;23125;48.156;15.954;2022-07-29T00:01:37;23.90;55.40
37232;DHT22;23125;48.156;15.954;2022-07-29T00:04:03;23.80;56.00
37232;DHT22;23125;48.156;15.954;2022-07-29T00:06:29;23.80;55.50
37232;DHT22;23125;48.156;15.954;2022-07-29T00:08:55;23.80;55.50
37232;DHT22;23125;48.156;15.954;2022-07-29T00:11:22;23.80;55.50
37232;DHT22;23125;48.156;15.954;2022-07-29T00:13:48;23.80;55.60
37232;DHT22;23125;48.156;15.954;2022-07-29T00:16:14;23.80;55.60
37232;DHT22;23125;48.156;15.954;2022-07-29T00:18:40;23.70;55.70
37232;DHT22;23125;48.156;15.954;2022-07-29T00:21:06;23.70;55.70
37232;DHT22;23125;48.156;15.954;2022-07-29T00:23:32;23.70;55.70
37232;DHT22;23125;48.156;15.954;2022-07-29T00:25:58;23.60;55.70
37232;DHT22;23125;48.156;15.954;2022-07-29T00:28:24;23.60;55.70
37232;DHT22;23125;48.156;15.954;2022-07-29T00:30:50;23.60;55.80
37232;DHT22;23125;48.156;15.954;2022-07-29T00:33:16;23.60;55.80
37232;DHT22;23125;48.156;15.954;2022-07-29T00:35:42;23.60;56.00
37232;DHT22;23125;48.156;15.954;2022-07-29T00:38:14;23.60;56.00
37232;DHT22;23125;48.156;15.954;2022-07-29T00:40:41;23.50;56.00
37232;DHT22;23125;48.156;15.954;2022-07-29T00:43:08;23.50;56.10
37232;DHT22;23125;48.156;15.954;2022-07-29T00:45:34;23.50;56.20
37232;DHT22;23125;48.156;15.954;2022-07-29T00:48:01;23.40;56.20
37232;DHT22;23125;48.156;15.954;2022-07-29T00:50:29;23.40;56.30
37232;DHT22;23125;48.156;15.954;2022-07-29T00:52:55;23.40;56.30
37232;DHT22;23125;48.156;15.954;2022-07-29T00:55:21;23.40;56.30
37232;DHT22;23125;48.156;15.954;2022-07-29T00:57:47;23.40;56.30
37232;DHT22;23125;48.156;15.954;2022-07-29T01:00:17;23.40;56.40
37232;DHT22;23125;48.156;15.954;2022-07-29T01:02:44;23.30;56.40
37232;DHT22;23125;48.156;15.954;2022-07-29T01:05:11;23.30;56.40
37232;DHT22;23125;48.156;15.954;2022-07-29T01:07:39;23.30;56.50
37232;DHT22;23125;48.156;15.954;2022-07-29T01:10:07;23.30;56.40
37232;DHT22;23125;48.156;15.954;2022-07-29T01:12:35;23.20;56.50
37232;DHT22;23125;48.156;15.954;2022-07-29T01:15:05;23.20;56.40
37232;DHT22;23125;48.156;15.954;2022-07-29T01:18:04;23.20;56.50
37232;DHT22;23125;48.156;15.954;2022-07-29T01:26:48;23.00;56.60
37232;DHT22;23125;48.156;15.954;2022-07-29T01:31:54;23.00;56.80
37232;DHT22;23125;48.156;15.954;2022-07-29T01:34:27;22.90;56.80
37232;DHT22;23125;48.156;15.954;2022-07-29T01:38:06;22.90;56.80
37232;DHT22;23125;48.156;15.954;2022-07-29T01:40:18;22.80;56.90
37232;DHT22;23125;48.156;15.954;2022-07-29T01:42:50;22.80;57.00
37232;DHT22;23125;48.156;15.954;2022-07-29T01:45:24;22.80;57.00
37232;DHT22;23125;48.156;15.954;2022-07-29T01:47:59;22.80;57.00
37232;DHT22;23125;48.156;15.954;2022-07-29T01:50:40;22.70;57.00
37232;DHT22;23125;48.156;15.954;2022-07-29T01:53:10;22.70;57.10
37232;DHT22;23125;48.156;15.954;2022-07-29T01:55:42;22.70;57.20
37232;DHT22;23125;48.156;15.954;2022-07-29T01:58:12;22.70;57.10
37232;DHT22;23125;48.156;15.954;2022-07-29T02:00:40;22.60;57.10
37232;DHT22;23125;48.156;15.954;2022-07-29T02:03:11;22.60;57.20
37232;DHT22;23125;48.156;15.954;2022-07-29T02:05:39;22.50;57.20
37232;DHT22;23125;48.156;15.954;2022-07-29T02:08:06;22.50;57.20
37232;DHT22;23125;48.156;15.954;2022-07-29T02:10:34;22.50;57.20
37232;DHT22;23125;48.156;15.954;2022-07-29T02:13:02;22.50;57.30
37232;DHT22;23125;48.156;15.954;2022-07-29T02:15:31;22.40;57.30
37232;DHT22;23125;48.156;15.954;2022-07-29T02:18:18;22.40;57.30
37232;DHT22;23125;48.156;15.954;2022-07-29T02:20:47;22.40;57.40
37232;DHT22;23125;48.156;15.954;2022-07-29T02:23:19;22.40;57.40
37232;DHT22;23125;48.156;15.954;2022-07-29T02:25:49;22.30;57.50
37232;DHT22;23125;48.156;15.954;2022-07-29T02:28:17;22.30;57.50
37232;DHT22;23125;48.156;15.954;2022-07-29T02:30:45;22.30;57.60
37232;DHT22;23125;48.156;15.954;2022-07-29T02:33:14;22.20;57.60
37232;DHT22;23125;48.156;15.954;2022-07-29T02:35:43;22.20;57.60
37232;DHT22;23125;48.156;15.954;2022-07-29T02:38:14;22.20;57.60
37232;DHT22;23125;48.156;15.954;2022-07-29T02:41:03;22.20;57.70
37232;DHT22;23125;48.156;15.954;2022-07-29T02:43:31;22.10;57.70
37232;DHT22;23125;48.156;15.954;2022-07-29T02:45:59;22.10;57.60
37232;DHT22;23125;48.156;15.954;2022-07-29T02:48:51;22.00;57.50
37232;DHT22;23125;48.156;15.954;2022-07-29T02:51:40;22.10;57.70
37232;DHT22;23125;48.156;15.954;2022-07-29T02:54:08;22.00;57.80
37232;DHT22;23125;48.156;15.954;2022-07-29T02:56:38;22.00;57.90
37232;DHT22;23125;48.156;15.954;2022-07-29T02:59:10;21.90;57.90
37232;DHT22;23125;48.156;15.954;2022-07-29T03:01:40;21.90;58.00
37232;DHT22;23125;48.156;15.954;2022-07-29T03:04:08;21.90;57.90
37232;DHT22;23125;48.156;15.954;2022-07-29T03:06:37;21.90;58.00
37232;DHT22;23125;48.156;15.954;2022-07-29T03:09:04;21.90;58.00
37232;DHT22;23125;48.156;15.954;2022-07-29T03:11:33;21.80;58.00
37232;DHT22;23125;48.156;15.954;2022-07-29T03:14:03;21.80;58.00
37232;DHT22;23125;48.156;15.954;2022-07-29T03:16:30;21.80;58.10
37232;DHT22;23125;48.156;15.954;2022-07-29T03:18:56;21.80;58.10
37232;DHT22;23125;48.156;15.954;2022-07-29T03:21:23;21.80;58.20
37232;DHT22;23125;48.156;15.954;2022-07-29T03:23:49;21.70;58.20
37232;DHT22;23125;48.156;15.954;2022-07-29T03:26:15;21.70;58.20
37232;DHT22;23125;48.156;15.954;2022-07-29T03:28:41;21.70;58.30
37232;DHT22;23125;48.156;15.954;2022-07-29T03:31:07;21.60;58.20
37232;DHT22;23125;48.156;15.954;2022-07-29T03:33:33;21.60;58.30
37232;DHT22;23125;48.156;15.954;2022-07-29T03:35:59;21.60;58.30
37232;DHT22;23125;48.156;15.954;2022-07-29T03:38:30;21.60;58.40
37232;DHT22;23125;48.156;15.954;2022-07-29T03:41:07;21.60;58.40
37232;DHT22;23125;48.156;15.954;2022-07-29T03:43:37;21.60;58.50
37232;DHT22;23125;48.156;15.954;2022-07-29T03:46:07;21.50;58.50
37232;DHT22;23125;48.156;15.954;2022-07-29T03:48:36;21.50;58.60
37232;DHT22;23125;48.156;15.954;2022-07-29T03:51:05;21.50;58.60
37232;DHT22;23125;48.156;15.954;2022-07-29T03:53:32;21.50;58.70
37232;DHT22;23125;48.156;15.954;2022-07-29T03:55:59;21.50;58.70
37232;DHT22;23125;48.156;15.954;2022-07-29T03:58:28;21.50;58.70
37232;DHT22;23125;48.156;15.954;2022-07-29T04:00:56;21.50;58.80
37232;DHT22;23125;48.156;15.954;2022-07-29T04:03:23;21.50;58.80
37232;DHT22;23125;48.156;15.954;2022-07-29T04:06:04;21.50;58.90
37232;DHT22;23125;48.156;15.954;2022-07-29T04:08:32;21.50;59.00
37232;DHT22;23125;48.156;15.954;2022-07-29T04:11:00;21.50;59.00
37232;DHT22;23125;48.156;15.954;2022-07-29T04:13:28;21.50;59.00
37232;DHT22;23125;48.156;15.954;2022-07-29T04:15:54;21.50;59.00
37232;DHT22;23125;48.156;15.954;2022-07-29T04:18:20;21.50;59.00
37232;DHT22;23125;48.156;15.954;2022-07-29T04:20:46;21.50;59.10
37232;DHT22;23125;48.156;15.954;2022-07-29T04:23:13;21.60;59.20
37232;DHT22;23125;48.156;15.954;2022-07-29T04:25:40;21.60;59.30
37232;DHT22;23125;48.156;15.954;2022-07-29T04:28:07;21.60;59.40
37232;DHT22;23125;48.156;15.954;2022-07-29T04:30:35;21.60;59.50
37232;DHT22;23125;48.156;15.954;2022-07-29T04:33:03;21.70;59.60
37232;DHT22;23125;48.156;15.954;2022-07-29T04:35:33;21.80;59.90
37232;DHT22;23125;48.156;15.954;2022-07-29T04:37:59;21.80;60.00
37232;DHT22;23125;48.156;15.954;2022-07-29T04:40:25;21.90;60.20
37232;DHT22;23125;48.156;15.954;2022-07-29T04:42:51;21.90;60.20
37232;DHT22;23125;48.156;15.954;2022-07-29T04:45:17;22.00;60.20
37232;DHT22;23125;48.156;15.954;2022-07-29T04:47:44;22.00;60.10
37232;DHT22;23125;48.156;15.954;2022-07-29T04:50:10;22.10;60.10
37232;DHT22;23125;48.156;15.954;2022-07-29T04:52:37;22.20;60.10
37232;DHT22;23125;48.156;15.954;2022-07-29T04:55:05;22.20;60.10
37232;DHT22;23125;48.156;15.954;2022-07-29T04:57:32;22.30;60.20
37232;DHT22;23125;48.156;15.954;2022-07-29T04:59:58;22.30;60.20
37232;DHT22;23125;48.156;15.954;2022-07-29T05:02:24;22.40;60.30
37232;DHT22;23125;48.156;15.954;2022-07-29T05:04:51;22.50;60.30
37232;DHT22;23125;48.156;15.954;2022-07-29T05:07:17;22.60;60.50
37232;DHT22;23125;48.156;15.954;2022-07-29T05:09:43;22.70;60.70
37232;DHT22;23125;48.156;15.954;2022-07-29T05:12:09;22.80;60.80
37232;DHT22;23125;48.156;15.954;2022-07-29T05:14:35;23.00;61.00
37232;DHT22;23125;48.156;15.954;2022-07-29T05:17:01;23.10;61.10
37232;DHT22;23125;48.156;15.954;2022-07-29T05:19:27;23.40;62.50
37232;DHT22;23125;48.156;15.954;2022-07-29T05:21:53;23.90;64.10
37232;DHT22;23125;48.156;15.954;2022-07-29T05:24:19;24.50;64.00
37232;DHT22;23125;48.156;15.954;2022-07-29T05:26:46;25.00;63.60
37232;DHT22;23125;48.156;15.954;2022-07-29T05:29:12;25.50;62.00
37232;DHT22;23125;48.156;15.954;2022-07-29T05:31:38;26.10;62.40
37232;DHT22;23125;48.156;15.954;2022-07-29T05:34:04;26.50;60.90
37232;DHT22;23125;48.156;15.954;2022-07-29T05:36:30;26.90;58.80
37232;DHT22;23125;48.156;15.954;2022-07-29T05:38:57;26.90;57.00
37232;DHT22;23125;48.156;15.954;2022-07-29T05:41:23;26.90;55.70
37232;DHT22;23125;48.156;15.954;2022-07-29T05:43:49;26.90;55.10
37232;DHT22;23125;48.156;15.954;2022-07-29T05:46:15;26.80;54.50
37232;DHT22;23125;48.156;15.954;2022-07-29T05:48:42;26.80;54.30
37232;DHT22;23125;48.156;15.954;2022-07-29T05:51:08;26.70;54.10
37232;DHT22;23125;48.156;15.954;2022-07-29T05:53:34;26.60;54.00
37232;DHT22;23125;48.156;15.954;2022-07-29T05:56:03;26.60;53.90
37232;DHT22;23125;48.156;15.954;2022-07-29T05:58:33;26.50;53.70
37232;DHT22;23125;48.156;15.954;2022-07-29T06:00:59;26.50;53.70
37232;DHT22;23125;48.156;15.954;2022-07-29T06:03:26;26.40;53.70
37232;DHT22;23125;48.156;15.954;2022-07-29T06:05:52;26.30;53.40
37232;DHT22;23125;48.156;15.954;2022-07-29T06:08:19;26.30;53.40
37232;DHT22;23125;48.156;15.954;2022-07-29T06:10:45;26.30;53.40
37232;DHT22;23125;48.156;15.954;2022-07-29T06:13:13;26.30;53.20
37232;DHT22;23125;48.156;15.954;2022-07-29T06:15:42;26.20;52.90
37232;DHT22;23125;48.156;15.954;2022-07-29T06:18:09;26.20;52.90
37232;DHT22;23125;48.156;15.954;2022-07-29T06:20:36;26.10;53.00
37232;DHT22;23125;48.156;15.954;2022-07-29T06:23:02;26.10;53.00
37232;DHT22;23125;48.156;15.954;2022-07-29T06:25:30;26.10;53.00
37232;DHT22;23125;48.156;15.954;2022-07-29T06:28:00;26.10;53.10
37232;DHT22;23125;48.156;15.954;2022-07-29T06:30:26;26.10;53.10
37232;DHT22;23125;48.156;15.954;2022-07-29T06:32:52;26.00;53.10
37232;DHT22;23125;48.156;15.954;2022-07-29T06:35:18;26.00;53.10
37232;DHT22;23125;48.156;15.954;2022-07-29T06:37:45;26.10;52.90
37232;DHT22;23125;48.156;15.954;2022-07-29T06:40:11;26.10;53.00
37232;DHT22;23125;48.156;15.954;2022-07-29T06:42:56;26.10;53.10
37232;DHT22;23125;48.156;15.954;2022-07-29T06:45:22;26.20;52.90
37232;DHT22;23125;48.156;15.954;2022-07-29T06:47:48;26.20;52.60
37232;DHT22;23125;48.156;15.954;2022-07-29T06:50:15;26.20;52.30
37232;DHT22;23125;48.156;15.954;2022-07-29T06:52:42;26.30;52.20
37232;DHT22;23125;48.156;15.954;2022-07-29T06:55:08;26.30;52.70
37232;DHT22;23125;48.156;15.954;2022-07-29T06:57:34;26.30;52.10
37232;DHT22;23125;48.156;15.954;2022-07-29T07:00:00;26.30;52.00
37232;DHT22;23125;48.156;15.954;2022-07-29T07:02:28;26.30;52.10
37232;DHT22;23125;48.156;15.954;2022-07-29T07:04:55;26.40;52.10
37232;DHT22;23125;48.156;15.954;2022-07-29T07:07:21;26.50;51.90
37232;DHT22;23125;48.156;15.954;2022-07-29T07:09:47;26.60;52.00
37232;DHT22;23125;48.156;15.954;2022-07-29T07:12:14;26.80;51.90
37232;DHT22;23125;48.156;15.954;2022-07-29T07:14:40;26.80;51.90
37232;DHT22;23125;48.156;15.954;2022-07-29T07:17:06;26.90;51.80
37232;DHT22;23125;48.156;15.954;2022-07-29T07:19:33;27.00;51.60
37232;DHT22;23125;48.156;15.954;2022-07-29T07:22:00;27.10;51.30
37232;DHT22;23125;48.156;15.954;2022-07-29T07:24:26;27.20;51.10
37232;DHT22;23125;48.156;15.954;2022-07-29T07:26:52;27.40;52.50
37232;DHT22;23125;48.156;15.954;2022-07-29T07:29:18;28.10;54.50
37232;DHT22;23125;48.156;15.954;2022-07-29T07:31:45;28.70;53.80
37232;DHT22;23125;48.156;15.954;2022-07-29T07:34:11;29.30;53.20
37232;DHT22;23125;48.156;15.954;2022-07-29T07:36:37;29.60;50.70
37232;DHT22;23125;48.156;15.954;2022-07-29T07:39:03;29.90;49.60
37232;DHT22;23125;48.156;15.954;2022-07-29T07:41:30;30.00;48.50
37232;DHT22;23125;48.156;15.954;2022-07-29T07:43:57;30.10;48.00
37232;DHT22;23125;48.156;15.954;2022-07-29T07:46:23;30.10;47.70
37232;DHT22;23125;48.156;15.954;2022-07-29T07:48:49;30.30;47.80
37232;DHT22;23125;48.156;15.954;2022-07-29T07:51:15;30.60;48.40
37232;DHT22;23125;48.156;15.954;2022-07-29T07:53:41;30.90;47.80
37232;DHT22;23125;48.156;15.954;2022-07-29T07:56:08;31.30;48.70
37232;DHT22;23125;48.156;15.954;2022-07-29T07:58:34;31.90;48.90
37232;DHT22;23125;48.156;15.954;2022-07-29T08:01:01;32.70;48.30
37232;DHT22;23125;48.156;15.954;2022-07-29T08:03:27;33.40;47.60
37232;DHT22;23125;48.156;15.954;2022-07-29T08:05:53;34.20;46.70
37232;DHT22;23125;48.156;15.954;2022-07-29T08:08:20;34.80;43.80
37232;DHT22;23125;48.156;15.954;2022-07-29T08:10:46;34.90;41.40
37232;DHT22;23125;48.156;15.954;2022-07-29T08:13:19;34.80;40.60
37232;DHT22;23125;48.156;15.954;2022-07-29T08:15:46;35.30;42.20
37232;DHT22;23125;48.156;15.954;2022-07-29T08:18:13;35.60;40.20
37232;DHT22;23125;48.156;15.954;2022-07-29T08:20:40;35.50;38.80
37232;DHT22;23125;48.156;15.954;2022-07-29T08:23:07;35.40;38.40
37232;DHT22;23125;48.156;15.954;2022-07-29T08:25:37;35.30;38.10
37232;DHT22;23125;48.156;15.954;2022-07-29T08:28:06;35.20;37.80
37232;DHT22;23125;48.156;15.954;2022-07-29T08:30:33;35.10;37.60
37232;DHT22;23125;48.156;15.954;2022-07-29T08:33:00;34.90;37.50
37232;DHT22;23125;48.156;15.954;2022-07-29T08:35:26;34.80;37.50
37232;DHT22;23125;48.156;15.954;2022-07-29T08:37:53;34.70;37.40
37232;DHT22;23125;48.156;15.954;2022-07-29T08:40:20;34.60;37.40
37232;DHT22;23125;48.156;15.954;2022-07-29T08:42:47;34.70;37.70
37232;DHT22;23125;48.156;15.954;2022-07-29T08:45:13;34.70;37.40
37232;DHT22;23125;48.156;15.954;2022-07-29T08:47:39;34.70;37.00
37232;DHT22;23125;48.156;15.954;2022-07-29T08:50:07;34.60;36.70
37232;DHT22;23125;48.156;15.954;2022-07-29T08:52:37;34.50;36.60
37232;DHT22;23125;48.156;15.954;2022-07-29T08:55:06;34.50;36.60
37232;DHT22;23125;48.156;15.954;2022-07-29T08:57:33;34.40;36.50
37232;DHT22;23125;48.156;15.954;2022-07-29T09:00:01;34.30;36.40
37232;DHT22;23125;48.156;15.954;2022-07-29T09:02:29;34.20;36.50
37232;DHT22;23125;48.156;15.954;2022-07-29T09:05:00;34.10;36.50
37232;DHT22;23125;48.156;15.954;2022-07-29T09:07:28;34.00;36.40
37232;DHT22;23125;48.156;15.954;2022-07-29T09:09:55;33.90;36.40
37232;DHT22;23125;48.156;15.954;2022-07-29T09:12:26;33.70;36.30
37232;DHT22;23125;48.156;15.954;2022-07-29T09:14:59;33.60;36.40
37232;DHT22;23125;48.156;15.954;2022-07-29T09:17:48;33.40;36.60
37232;DHT22;23125;48.156;15.954;2022-07-29T09:20:22;33.20;36.90
37232;DHT22;23125;48.156;15.954;2022-07-29T09:22:51;33.20;37.40
37232;DHT22;23125;48.156;15.954;2022-07-29T09:25:40;33.20;37.90
37232;DHT22;23125;48.156;15.954;2022-07-29T09:28:12;33.30;38.10
37232;DHT22;23125;48.156;15.954;2022-07-29T09:30:56;33.50;38.80
37232;DHT22;23125;48.156;15.954;2022-07-29T09:33:33;33.80;39.00
37232;DHT22;23125;48.156;15.954;2022-07-29T09:36:07;34.10;39.10
37232;DHT22;23125;48.156;15.954;2022-07-29T09:38:46;34.50;39.10
37232;DHT22;23125;48.156;15.954;2022-07-29T09:41:25;34.90;38.50
37232;DHT22;23125;48.156;15.954;2022-07-29T09:43:56;35.10;37.80
37232;DHT22;23125;48.156;15.954;2022-07-29T09:46:29;35.30;37.40
37232;DHT22;23125;48.156;15.954;2022-07-29T09:49:09;35.50;37.40
37232;DHT22;23125;48.156;15.954;2022-07-29T09:52:09;35.80;37.60
37232;DHT22;23125;48.156;15.954;2022-07-29T09:54:48;36.00;37.20
37232;DHT22;23125;48.156;15.954;2022-07-29T09:57:27;36.20;36.30
37232;DHT22;23125;48.156;15.954;2022-07-29T10:00:17;36.20;36.10
37232;DHT22;23125;48.156;15.954;2022-07-29T10:02:46;36.20;36.20
37232;DHT22;23125;48.156;15.954;2022-07-29T10:05:24;36.40;36.60
37232;DHT22;23125;48.156;15.954;2022-07-29T10:07:54;36.70;36.50
37232;DHT22;23125;48.156;15.954;2022-07-29T10:10:23;36.90;35.80
37232;DHT22;23125;48.156;15.954;2022-07-29T10:12:57;37.00;35.40
37232;DHT22;23125;48.156;15.954;2022-07-29T10:15:26;37.10;35.70
37232;DHT22;23125;48.156;15.954;2022-07-29T10:17:54;37.20;34.70
37232;DHT22;23125;48.156;15.954;2022-07-29T10:20:21;37.20;34.50
37232;DHT22;23125;48.156;15.954;2022-07-29T10:22:49;37.10;34.30
37232;DHT22;23125;48.156;15.954;2022-07-29T10:25:17;37.00;34.10
37232;DHT22;23125;48.156;15.954;2022-07-29T10:27:45;37.00;34.40
37232;DHT22;23125;48.156;15.954;2022-07-29T10:30:14;37.00;34.50
37232;DHT22;23125;48.156;15.954;2022-07-29T10:38:42;36.40;33.50
37232;DHT22;23125;48.156;15.954;2022-07-29T10:41:29;36.20;33.80
37232;DHT22;23125;48.156;15.954;2022-07-29T10:44:03;35.90;33.80
37232;DHT22;23125;48.156;15.954;2022-07-29T10:46:35;35.80;33.90
37232;DHT22;23125;48.156;15.954;2022-07-29T10:54:42;35.40;34.20
37232;DHT22;23125;48.156;15.954;2022-07-29T10:57:25;35.20;34.70
37232;DHT22;23125;48.156;15.954;2022-07-29T11:05:25;35.10;35.50
37232;DHT22;23125;48.156;15.954;2022-07-29T11:10:40;35.10;35.60
37232;DHT22;23125;48.156;15.954;2022-07-29T11:13:09;35.10;35.90
37232;DHT22;23125;48.156;15.954;2022-07-29T11:15:56;35.20;36.30
37232;DHT22;23125;48.156;15.954;2022-07-29T11:19:18;35.20;36.40
37232;DHT22;23125;48.156;15.954;2022-07-29T11:21:42;35.20;36.50
37232;DHT22;23125;48.156;15.954;2022-07-29T11:24:26;35.30;36.60
37232;DHT22;23125;48.156;15.954;2022-07-29T11:27:10;35.30;36.50
37232;DHT22;23125;48.156;15.954;2022-07-29T11:29:51;35.30;36.40
37232;DHT22;23125;48.156;15.954;2022-07-29T11:32:18;35.30;36.20
37232;DHT22;23125;48.156;15.954;2022-07-29T11:34:47;35.30;36.10
37232;DHT22;23125;48.156;15.954;2022-07-29T11:37:18;35.20;35.70
37232;DHT22;23125;48.156;15.954;2022-07-29T11:45:08;34.90;35.50
37232;DHT22;23125;48.156;15.954;2022-07-29T11:47:38;34.80;35.70
37232;DHT22;23125;48.156;15.954;2022-07-29T11:50:11;34.70;36.00
37232;DHT22;23125;48.156;15.954;2022-07-29T11:52:42;34.70;36.30
37232;DHT22;23125;48.156;15.954;2022-07-29T11:55:20;34.70;36.20
37232;DHT22;23125;48.156;15.954;2022-07-29T11:57:51;34.60;36.10
37232;DHT22;23125;48.156;15.954;2022-07-29T12:00:24;34.60;36.20
37232;DHT22;23125;48.156;15.954;2022-07-29T12:02:52;34.60;36.00
37232;DHT22;23125;48.156;15.954;2022-07-29T12:05:18;34.50;36.30
37232;DHT22;23125;48.156;15.954;2022-07-29T12:07:45;34.50;36.30
37232;DHT22;23125;48.156;15.954;2022-07-29T12:10:12;34.50;36.50
37232;DHT22;23125;48.156;15.954;2022-07-29T12:12:39;34.40;36.40
37232;DHT22;23125;48.156;15.954;2022-07-29T12:15:16;34.40;36.20
37232;DHT22;23125;48.156;15.954;2022-07-29T12:17:47;34.30;36.30
37232;DHT22;23125;48.156;15.954;2022-07-29T12:20:14;34.20;36.80
37232;DHT22;23125;48.156;15.954;2022-07-29T12:22:47;34.20;37.00
37232;DHT22;23125;48.156;15.954;2022-07-29T12:25:15;34.20;36.90
37232;DHT22;23125;48.156;15.954;2022-07-29T12:27:43;34.10;36.70
37232;DHT22;23125;48.156;15.954;2022-07-29T12:30:12;34.00;36.80
37232;DHT22;23125;48.156;15.954;2022-07-29T12:32:41;33.90;37.10
37232;DHT22;23125;48.156;15.954;2022-07-29T12:35:16;33.80;37.00
37232;DHT22;23125;48.156;15.954;2022-07-29T12:37:45;33.70;37.40
37232;DHT22;23125;48.156;15.954;2022-07-29T12:40:15;33.60;37.50
37232;DHT22;23125;48.156;15.954;2022-07-29T12:43:14;33.40;37.40
37232;DHT22;23125;48.156;15.954;2022-07-29T12:45:46;33.30;37.60
37232;DHT22;23125;48.156;15.954;2022-07-29T12:48:13;33.20;37.90
37232;DHT22;23125;48.156;15.954;2022-07-29T12:51:01;33.00;38.20
37232;DHT22;23125;48.156;15.954;2022-07-29T12:53:28;32.90;38.30
37232;DHT22;23125;48.156;15.954;2022-07-29T12:55:56;32.80;38.50
37232;DHT22;23125;48.156;15.954;2022-07-29T12:58:38;32.60;38.70
37232;DHT22;23125;48.156;15.954;2022-07-29T13:01:12;32.50;39.00
37232;DHT22;23125;48.156;15.954;2022-07-29T13:03:57;32.40;39.30
37232;DHT22;23125;48.156;15.954;2022-07-29T13:06:33;32.20;39.70
37232;DHT22;23125;48.156;15.954;2022-07-29T13:09:03;32.10;40.10
37232;DHT22;23125;48.156;15.954;2022-07-29T13:11:31;32.00;40.50
37232;DHT22;23125;48.156;15.954;2022-07-29T13:13:58;32.00;40.90
37232;DHT22;23125;48.156;15.954;2022-07-29T13:16:24;31.90;41.20
37232;DHT22;23125;48.156;15.954;2022-07-29T13:19:04;31.80;41.70
37232;DHT22;23125;48.156;15.954;2022-07-29T13:21:31;31.70;42.20
37232;DHT22;23125;48.156;15.954;2022-07-29T13:23:58;31.60;42.60
37232;DHT22;23125;48.156;15.954;2022-07-29T13:26:25;31.60;43.10
37232;DHT22;23125;48.156;15.954;2022-07-29T13:28:52;31.50;43.30
37232;DHT22;23125;48.156;15.954;2022-07-29T13:31:22;31.40;43.60
37232;DHT22;23125;48.156;15.954;2022-07-29T13:33:51;31.30;43.80
37232;DHT22;23125;48.156;15.954;2022-07-29T13:36:18;31.10;44.20
37232;DHT22;23125;48.156;15.954;2022-07-29T13:38:44;31.00;44.60
37232;DHT22;23125;48.156;15.954;2022-07-29T13:41:17;30.80;44.50
37232;DHT22;23125;48.156;15.954;2022-07-29T13:43:45;30.70;44.80
37232;DHT22;23125;48.156;15.954;2022-07-29T13:46:23;30.60;45.30
37232;DHT22;23125;48.156;15.954;2022-07-29T13:48:59;30.40;45.80
37232;DHT22;23125;48.156;15.954;2022-07-29T13:51:28;30.40;46.00
37232;DHT22;23125;48.156;15.954;2022-07-29T13:54:11;30.20;46.30
37232;DHT22;23125;48.156;15.954;2022-07-29T13:56:59;30.10;46.60
37232;DHT22;23125;48.156;15.954;2022-07-29T14:00:03;30.00;46.80
37232;DHT22;23125;48.156;15.954;2022-07-29T14:03:16;29.90;47.30
37232;DHT22;23125;48.156;15.954;2022-07-29T14:09:57;29.70;47.80
37232;DHT22;23125;48.156;15.954;2022-07-29T14:16:34;29.50;48.20
37232;DHT22;23125;48.156;15.954;2022-07-29T14:19:13;29.40;48.40
37232;DHT22;23125;48.156;15.954;2022-07-29T14:22:02;29.30;48.40
37232;DHT22;23125;48.156;15.954;2022-07-29T14:24:51;29.20;48.80
37232;DHT22;23125;48.156;15.954;2022-07-29T14:27:40;29.10;48.80
37232;DHT22;23125;48.156;15.954;2022-07-29T14:30:35;29.00;48.80
37232;DHT22;23125;48.156;15.954;2022-07-29T14:33:36;28.90;49.00
37232;DHT22;23125;48.156;15.954;2022-07-29T14:36:30;28.80;49.10
37232;DHT22;23125;48.156;15.954;2022-07-29T14:39:18;28.70;49.30
37232;DHT22;23125;48.156;15.954;2022-07-29T14:42:24;28.60;49.40
37232;DHT22;23125;48.156;15.954;2022-07-29T14:48:29;28.40;50.40
37232;DHT22;23125;48.156;15.954;2022-07-29T14:51:29;28.40;50.80
37232;DHT22;23125;48.156;15.954;2022-07-29T14:57:43;28.50;51.50
37232;DHT22;23125;48.156;15.954;2022-07-29T15:00:43;28.50;51.40
37232;DHT22;23125;48.156;15.954;2022-07-29T15:03:38;28.60;51.90
37232;DHT22;23125;48.156;15.954;2022-07-29T15:06:33;28.60;52.00
37232;DHT22;23125;48.156;15.954;2022-07-29T15:09:35;28.70;52.40
37232;DHT22;23125;48.156;15.954;2022-07-29T15:12:33;28.80;52.50
37232;DHT22;23125;48.156;15.954;2022-07-29T15:15:34;28.80;52.40
37232;DHT22;23125;48.156;15.954;2022-07-29T15:18:30;29.00;52.70
37232;DHT22;23125;48.156;15.954;2022-07-29T15:21:22;29.00;52.60
37232;DHT22;23125;48.156;15.954;2022-07-29T15:24:12;29.10;52.80
37232;DHT22;23125;48.156;15.954;2022-07-29T15:27:05;29.10;52.80
37232;DHT22;23125;48.156;15.954;2022-07-29T15:29:55;29.20;52.70
37232;DHT22;23125;48.156;15.954;2022-07-29T15:32:45;29.20;52.50
37232;DHT22;23125;48.156;15.954;2022-07-29T15:35:36;29.30;52.60
37232;DHT22;23125;48.156;15.954;2022-07-29T15:38:31;29.40;52.80
37232;DHT22;23125;48.156;15.954;2022-07-29T15:41:28;29.40;52.90
37232;DHT22;23125;48.156;15.954;2022-07-29T15:44:21;29.50;53.00
37232;DHT22;23125;48.156;15.954;2022-07-29T15:47:15;29.60;53.00
37232;DHT22;23125;48.156;15.954;2022-07-29T15:49:55;29.60;53.00
37232;DHT22;23125;48.156;15.954;2022-07-29T15:52:39;29.70;53.10
37232;DHT22;23125;48.156;15.954;2022-07-29T15:55:23;29.70;53.10
37232;DHT22;23125;48.156;15.954;2022-07-29T15:58:12;29.70;53.20
37232;DHT22;23125;48.156;15.954;2022-07-29T16:01:00;29.70;53.30
37232;DHT22;23125;48.156;15.954;2022-07-29T16:03:48;29.80;53.30
37232;DHT22;23125;48.156;15.954;2022-07-29T16:06:30;29.80;53.30
37232;DHT22;23125;48.156;15.954;2022-07-29T16:09:20;29.90;53.30
37232;DHT22;23125;48.156;15.954;2022-07-29T16:12:04;29.90;53.20
37232;DHT22;23125;48.156;15.954;2022-07-29T16:14:55;29.80;53.20
37232;DHT22;23125;48.156;15.954;2022-07-29T16:17:51;29.80;53.20
37232;DHT22;23125;48.156;15.954;2022-07-29T16:20:44;29.80;53.30
37232;DHT22;23125;48.156;15.954;2022-07-29T16:23:44;29.70;53.20
37232;DHT22;23125;48.156;15.954;2022-07-29T16:26:44;29.70;53.20
37232;DHT22;23125;48.156;15.954;2022-07-29T16:29:39;29.70;53.10
37232;DHT22;23125;48.156;15.954;2022-07-29T16:32:28;29.60;53.20
37232;DHT22;23125;48.156;15.954;2022-07-29T16:35:17;29.50;53.30
37232;DHT22;23125;48.156;15.954;2022-07-29T16:37:54;29.50;53.60
37232;DHT22;23125;48.156;15.954;2022-07-29T16:40:32;29.40;53.70